Time;durP1;ratioP1;P1;durP2;ratioP2;P2;SDS_P1;SDS_P2;PMS_P1;PMS_P2;Temp;Humidity;BMP_temperature;BMP_pressure;BME280_temperature;BME280_humidity;BME280_pressure;Samples;Min_cycle;Max_cycle;Signal;HPM_P1;HPM_P2
2022/11/06 14:20:43;;;;;;;2.97;2.22;;;11.30;91.50;;;;;;5017875;28;20231;-82
2022/11/06 14:23:50;;;;;;;2.13;1.90;;;11.10;92.30;;;;;;5002484;28;20034;-83
2022/11/06 14:26:47;;;;;;;2.38;2.08;;;11.00;93.00;;;;;;4981886;28;20046;-81
2022/11/06 14:29:25;;;;;;;4.25;2.58;;;10.90;93.60;;;;;;5003567;28;20029;-80
2022/11/06 14:32:22;;;;;;;3.95;2.20;;;10.80;93.70;;;;;;5018475;28;20037;-80
2022/11/06 14:34:48;;;;;;;3.00;2.80;;;10.70;94.10;;;;;;5019209;28;20041;-82
2022/11/06 14:37:17;;;;;;;2.78;2.35;;;10.50;94.50;;;;;;5007576;28;20022;-82
2022/11/06 14:39:55;;;;;;;2.20;2.00;;;10.40;95.10;;;;;;5015710;28;20018;-82
2022/11/06 14:42:35;;;;;;;2.35;2.13;;;10.40;95.30;;;;;;4999154;28;20033;-82
2022/11/06 14:45:12;;;;;;;2.08;1.83;;;10.30;95.50;;;;;;5004142;28;20368;-81
2022/11/06 14:47:51;;;;;;;2.33;2.13;;;10.20;95.70;;;;;;5004333;28;20058;-82
2022/11/06 14:50:18;;;;;;;1.98;1.88;;;10.20;96.00;;;;;;5021312;28;20148;-81
2022/11/06 14:52:55;;;;;;;3.53;2.83;;;10.10;96.10;;;;;;5023662;28;20042;-82
2022/11/06 14:55:42;;;;;;;3.03;2.22;;;10.10;96.00;;;;;;5027842;28;20056;-81
2022/11/06 14:58:17;;;;;;;2.30;2.10;;;10.00;96.20;;;;;;5025921;28;20094;-82
2022/11/06 15:01:00;;;;;;;2.33;2.13;;;9.90;96.60;;;;;;5025119;28;20018;-81
2022/11/06 15:03:41;;;;;;;3.58;2.42;;;9.80;96.90;;;;;;5025173;28;20026;-82
2022/11/06 15:06:20;;;;;;;3.83;2.30;;;9.80;97.20;;;;;;5026898;28;20382;-84
2022/11/06 15:08:46;;;;;;;2.30;2.10;;;9.70;97.30;;;;;;5027871;28;20030;-83
2022/11/06 15:11:30;;;;;;;2.38;2.17;;;9.60;97.30;;;;;;5031711;28;20045;-84
2022/11/06 15:13:59;;;;;;;4.53;2.65;;;9.50;97.60;;;;;;5033818;28;20052;-85
2022/11/06 15:16:36;;;;;;;3.08;1.90;;;9.40;98.00;;;;;;5026692;28;20080;-83
2022/11/06 15:19:05;;;;;;;2.78;2.45;;;9.40;98.30;;;;;;5014002;28;20059;-83
2022/11/06 15:21:36;;;;;;;2.00;1.90;;;9.20;98.60;;;;;;5016685;28;20037;-82
2022/11/06 15:24:04;;;;;;;3.40;2.28;;;9.20;98.90;;;;;;5025168;28;20086;-82
2022/11/06 15:26:37;;;;;;;3.85;2.28;;;9.10;99.20;;;;;;5026647;28;20021;-84
2022/11/06 15:29:15;;;;;;;6.60;2.80;;;9.00;99.60;;;;;;5017170;28;20018;-83
2022/11/06 15:31:48;;;;;;;3.55;2.63;;;9.00;99.90;;;;;;5025981;28;20109;-82
2022/11/06 15:34:28;;;;;;;5.18;3.50;;;9.00;99.90;;;;;;5007262;28;20022;-83
2022/11/06 15:37:10;;;;;;;3.63;2.85;;;8.90;99.90;;;;;;5026269;28;20028;-82
2022/11/06 15:39:48;;;;;;;3.45;2.90;;;8.90;99.90;;;;;;5025521;28;20018;-83
2022/11/06 15:42:20;;;;;;;3.42;2.63;;;8.80;99.90;;;;;;5005528;28;20034;-83
2022/11/06 15:44:46;;;;;;;;;;;8.70;99.90;;;;;;5007886;28;20101;-83
2022/11/06 15:47:21;;;;;;;2.65;2.33;;;8.60;99.90;;;;;;5008726;28;19905;-82
2022/11/06 15:49:47;;;;;;;2.65;2.45;;;8.60;99.90;;;;;;5015723;28;20082;-84
2022/11/06 15:52:17;;;;;;;2.72;2.47;;;8.50;99.90;;;;;;5034218;28;20025;-84
2022/11/06 15:54:43;;;;;;;3.78;2.30;;;8.40;99.90;;;;;;5035656;28;20040;-85
2022/11/06 15:57:15;;;;;;;2.15;1.95;;;8.40;99.90;;;;;;5035995;28;20138;-85
2022/11/06 15:59:41;;;;;;;2.70;2.28;;;8.40;99.90;;;;;;5034732;28;20082;-82
2022/11/06 16:02:19;;;;;;;2.45;2.25;;;8.30;99.90;;;;;;5017717;28;20022;-82
2022/11/06 16:04:46;;;;;;;3.20;2.58;;;8.30;99.90;;;;;;5009796;28;20049;-82
2022/11/06 16:07:13;;;;;;;2.20;2.03;;;8.30;99.90;;;;;;5021476;28;20021;-82
2022/11/06 16:09:41;;;;;;;3.22;2.70;;;8.30;99.90;;;;;;5031644;28;20034;-83
2022/11/06 16:12:14;;;;;;;2.65;2.40;;;8.20;99.90;;;;;;5036274;28;20049;-82
2022/11/06 16:14:43;;;;;;;3.33;2.97;;;8.20;99.90;;;;;;5006026;28;20026;-81
2022/11/06 16:17:32;;;;;;;3.83;3.03;;;8.10;99.90;;;;;;5024906;28;20068;-84
2022/11/06 16:20:00;;;;;;;3.40;2.75;;;8.10;99.90;;;;;;4996191;28;20049;-82
2022/11/06 16:22:29;;;;;;;3.55;2.70;;;8.10;99.90;;;;;;5002134;28;20029;-83
2022/11/06 16:25:00;;;;;;;4.30;2.80;;;8.10;99.90;;;;;;5018733;28;20087;-83
2022/11/06 16:27:31;;;;;;;2.93;2.63;;;8.00;99.90;;;;;;5017158;28;20041;-83
2022/11/06 16:30:01;;;;;;;2.60;2.40;;;8.00;99.90;;;;;;5016139;28;20030;-82
2022/11/06 16:32:31;;;;;;;3.47;2.67;;;8.00;99.90;;;;;;5015233;28;20045;-83
2022/11/06 16:34:58;;;;;;;2.67;2.05;;;8.00;99.90;;;;;;5024889;28;20411;-83
2022/11/06 16:37:28;;;;;;;2.78;2.38;;;7.90;99.90;;;;;;5020796;28;20075;-81
2022/11/06 16:39:55;;;;;;;3.80;3.00;;;7.90;99.90;;;;;;5028852;28;20043;-83
2022/11/06 16:42:42;;;;;;;4.85;3.15;;;7.90;99.90;;;;;;5029733;28;20018;-85
2022/11/06 16:45:19;;;;;;;4.80;3.30;;;7.90;99.90;;;;;;5034618;28;20053;-84
2022/11/06 16:48:22;;;;;;;5.38;3.60;;;7.90;99.90;;;;;;5006837;28;20029;-85
2022/11/06 16:50:53;;;;;;;3.22;2.90;;;7.90;99.90;;;;;;5035122;28;20073;-86
2022/11/06 16:53:24;;;;;;;2.70;2.50;;;7.90;99.90;;;;;;5035106;28;20021;-85
2022/11/06 16:56:04;;;;;;;3.60;3.00;;;7.90;99.90;;;;;;5026702;28;20030;-85
2022/11/06 16:58:33;;;;;;;4.05;2.80;;;7.90;99.90;;;;;;5006411;28;20057;-84
2022/11/06 17:01:02;;;;;;;3.92;3.28;;;7.90;99.90;;;;;;5015788;28;20060;-84
2022/11/06 17:03:39;;;;;;;3.40;3.08;;;7.90;99.90;;;;;;5011755;28;20467;-83
2022/11/06 17:06:15;;;;;;;4.18;3.15;;;7.90;99.90;;;;;;5015812;28;20025;-83
2022/11/06 17:08:41;;;;;;;4.30;3.35;;;7.90;99.90;;;;;;5001779;28;20057;-84
2022/11/06 17:11:12;;;;;;;4.72;3.13;;;8.00;99.90;;;;;;5023307;28;20481;-84
2022/11/06 17:13:43;;;;;;;4.40;2.83;;;7.90;99.90;;;;;;5005396;28;20032;-84
2022/11/06 17:16:20;;;;;;;3.65;3.00;;;7.90;99.90;;;;;;5022163;28;20026;-83
2022/11/06 17:18:47;;;;;;;4.00;3.45;;;7.90;99.90;;;;;;5025750;28;20034;-82
2022/11/06 17:21:13;;;;;;;3.60;3.08;;;8.00;99.90;;;;;;5021113;28;20045;-83
2022/11/06 17:23:39;;;;;;;4.75;3.40;;;8.00;99.90;;;;;;5019921;28;20081;-83
2022/11/06 17:26:19;;;;;;;5.35;2.92;;;8.00;99.90;;;;;;5012577;28;20422;-83
2022/11/06 17:28:45;;;;;;;4.53;3.00;;;8.00;99.90;;;;;;5013061;28;20029;-84
2022/11/06 17:31:12;;;;;;;5.03;3.05;;;8.00;99.90;;;;;;5024781;28;20076;-84
2022/11/06 17:33:39;;;;;;;3.95;3.33;;;8.00;99.90;;;;;;5021977;28;20022;-83
2022/11/06 17:36:05;;;;;;;4.55;3.55;;;8.00;99.90;;;;;;5017684;28;20049;-83
2022/11/06 17:38:31;;;;;;;4.45;3.72;;;8.00;99.90;;;;;;5018751;28;20022;-83
2022/11/06 17:40:57;;;;;;;7.75;4.80;;;8.00;99.90;;;;;;5000662;28;20022;-83
2022/11/06 17:43:22;;;;;;;7.28;4.07;;;8.00;99.90;;;;;;5019858;28;20033;-84
2022/11/06 17:45:48;;;;;;;6.43;4.20;;;8.00;99.90;;;;;;5011133;28;20359;-85
2022/11/06 17:48:16;;;;;;;4.68;3.78;;;8.00;99.90;;;;;;5017739;28;20033;-83
2022/11/06 17:53:26;;;;;;;4.00;3.60;;;8.00;99.90;;;;;;5024760;28;20028;-85
2022/11/06 17:55:51;;;;;;;4.50;3.55;;;8.00;99.90;;;;;;5009612;28;20057;-85
2022/11/06 17:58:17;;;;;;;4.25;3.25;;;8.00;99.90;;;;;;5027330;28;20030;-83
2022/11/06 18:00:43;;;;;;;4.25;3.13;;;8.00;99.90;;;;;;5028262;28;20097;-84
2022/11/06 18:03:18;;;;;;;3.65;3.00;;;8.00;99.90;;;;;;5028144;28;20018;-83
2022/11/06 18:05:44;;;;;;;5.15;4.07;;;8.10;99.90;;;;;;4989162;28;20432;-83
2022/11/06 18:08:11;;;;;;;5.32;3.97;;;8.10;99.90;;;;;;5026678;28;20050;-84
2022/11/06 18:10:38;;;;;;;5.95;4.30;;;8.10;99.90;;;;;;5016977;28;20036;-85
2022/11/06 18:13:04;;;;;;;5.55;4.22;;;8.00;99.90;;;;;;5037964;28;20049;-85
2022/11/06 18:15:33;;;;;;;5.97;3.70;;;8.00;99.90;;;;;;5025284;28;20022;-84
2022/11/06 18:17:59;;;;;;;6.18;4.03;;;8.00;99.90;;;;;;5031569;28;20009;-81
2022/11/06 18:20:24;;;;;;;5.55;4.20;;;8.00;99.90;;;;;;5035184;28;20021;-81
2022/11/06 18:22:50;;;;;;;5.60;4.15;;;8.00;99.90;;;;;;5025754;28;20072;-83
2022/11/06 18:25:16;;;;;;;5.65;4.18;;;8.00;99.90;;;;;;5032014;28;20042;-85
2022/11/06 18:27:42;;;;;;;7.72;4.60;;;8.00;99.90;;;;;;5017718;28;20021;-86
2022/11/06 18:30:08;;;;;;;5.35;3.90;;;7.90;99.90;;;;;;5037201;28;20036;-86
2022/11/06 18:32:34;;;;;;;4.10;3.42;;;7.90;99.90;;;;;;5020419;28;20065;-87
2022/11/06 18:34:59;;;;;;;7.95;3.70;;;7.90;99.90;;;;;;5036931;28;20025;-87
2022/11/06 18:37:25;;;;;;;4.50;3.45;;;8.00;99.90;;;;;;5036612;28;20038;-86
2022/11/06 18:39:51;;;;;;;4.43;3.58;;;8.00;99.90;;;;;;5037272;28;20030;-85
2022/11/06 18:42:17;;;;;;;4.90;3.65;;;8.00;99.90;;;;;;5020170;28;20041;-86
2022/11/06 18:44:42;;;;;;;7.88;4.30;;;8.00;99.90;;;;;;5037645;28;20028;-85
2022/11/06 18:47:08;;;;;;;6.32;3.95;;;8.00;99.90;;;;;;5036783;28;20029;-84
2022/11/06 18:49:34;;;;;;;5.75;4.50;;;8.00;99.90;;;;;;5019456;28;20045;-86
2022/11/06 18:51:59;;;;;;;6.15;4.13;;;8.00;99.90;;;;;;5019714;28;20045;-85
2022/11/06 18:54:28;;;;;;;4.88;3.90;;;8.00;99.90;;;;;;5019484;28;20137;-85
2022/11/06 18:56:53;;;;;;;5.40;4.03;;;8.10;99.90;;;;;;5019060;28;20049;-84
2022/11/06 18:59:19;;;;;;;6.22;4.57;;;8.10;99.90;;;;;;5012046;28;20474;-84
2022/11/06 19:01:45;;;;;;;7.32;4.53;;;8.10;99.90;;;;;;5010704;28;20030;-82
2022/11/06 19:04:11;;;;;;;5.10;3.67;;;8.10;99.90;;;;;;5008626;28;20030;-83
2022/11/06 19:06:38;;;;;;;5.47;3.35;;;8.10;99.90;;;;;;5025951;28;20026;-83
2022/11/06 19:09:05;;;;;;;6.50;3.90;;;8.10;99.90;;;;;;5005262;28;20038;-84
2022/11/06 19:11:31;;;;;;;6.72;4.07;;;8.10;99.90;;;;;;5003607;28;20030;-84
2022/11/06 19:14:07;;;;;;;5.50;4.03;;;8.00;99.90;;;;;;5013337;28;20048;-83
2022/11/06 19:16:33;;;;;;;5.07;3.45;;;8.00;99.90;;;;;;5040971;28;20037;-82
2022/11/06 19:19:04;;;;;;;5.75;4.05;;;8.00;99.90;;;;;;5041126;28;20094;-81
2022/11/06 19:21:31;;;;;;;5.03;3.55;;;8.00;99.90;;;;;;5041105;28;20032;-83
2022/11/06 19:23:59;;;;;;;4.50;3.38;;;8.00;99.90;;;;;;5023020;28;20093;-83
2022/11/06 19:26:25;;;;;;;5.32;3.70;;;8.00;99.90;;;;;;5041101;28;20025;-83
2022/11/06 19:28:57;;;;;;;5.10;4.15;;;8.00;99.90;;;;;;5041373;28;20104;-83
2022/11/06 19:31:27;;;;;;;4.60;3.50;;;8.00;99.90;;;;;;5037707;28;20029;-82
2022/11/06 19:33:56;;;;;;;5.22;3.85;;;8.00;99.90;;;;;;5040685;28;20116;-82
2022/11/06 19:36:23;;;;;;;8.18;4.43;;;7.90;99.90;;;;;;5039334;28;20072;-82
2022/11/06 19:38:49;;;;;;;5.97;4.15;;;7.90;99.90;;;;;;5016586;28;20546;-83
2022/11/06 19:41:15;;;;;;;6.35;4.07;;;8.00;99.90;;;;;;5002682;28;20076;-84
2022/11/06 19:43:40;;;;;;;4.65;3.35;;;8.00;99.90;;;;;;5024356;28;20029;-83
2022/11/06 19:46:07;;;;;;;8.07;4.10;;;8.00;99.90;;;;;;5004122;28;20129;-82
2022/11/06 19:48:33;;;;;;;6.13;3.33;;;8.00;99.90;;;;;;5033377;28;20030;-85
2022/11/06 19:50:59;;;;;;;6.10;3.90;;;8.00;99.90;;;;;;5030953;28;20030;-83
2022/11/06 19:53:25;;;;;;;4.68;3.72;;;8.00;99.90;;;;;;5025611;28;20093;-83
2022/11/06 19:55:51;;;;;;;4.38;3.17;;;8.00;99.90;;;;;;5009155;28;20022;-84
2022/11/06 19:58:19;;;;;;;5.32;3.75;;;8.00;99.90;;;;;;5032911;28;20010;-85
2022/11/06 20:00:47;;;;;;;4.63;3.25;;;8.00;99.90;;;;;;5034144;28;20010;-85
2022/11/06 20:03:14;;;;;;;6.32;3.50;;;8.00;99.90;;;;;;5026056;28;20355;-83
2022/11/06 20:05:40;;;;;;;7.00;3.83;;;8.00;99.90;;;;;;5023919;28;20053;-82
2022/11/06 20:08:10;;;;;;;5.70;3.60;;;8.00;99.90;;;;;;5003757;28;20221;-83
2022/11/06 20:10:36;;;;;;;6.32;3.70;;;8.00;99.90;;;;;;5019817;28;20052;-83
2022/11/06 20:13:02;;;;;;;4.80;3.15;;;8.00;99.90;;;;;;5036187;28;20034;-85
2022/11/06 20:15:28;;;;;;;6.15;3.58;;;8.00;99.90;;;;;;5034745;28;20088;-82
2022/11/06 20:17:54;;;;;;;5.13;3.60;;;8.00;99.90;;;;;;5035313;28;20026;-87
2022/11/06 20:20:23;;;;;;;5.47;3.45;;;8.00;99.90;;;;;;5035552;28;20088;-85
2022/11/06 20:22:48;;;;;;;6.35;3.75;;;8.10;99.90;;;;;;5012473;28;20151;-84
2022/11/06 20:25:15;;;;;;;6.13;3.42;;;8.10;99.90;;;;;;5007649;28;20025;-84
2022/11/06 20:27:40;;;;;;;7.18;4.95;;;8.10;99.90;;;;;;5024014;28;20078;-83
2022/11/06 20:30:08;;;;;;;9.43;5.85;;;8.20;99.90;;;;;;5023373;28;20037;-83
2022/11/06 20:32:33;;;;;;;7.43;4.80;;;8.20;99.90;;;;;;5023149;28;20025;-84
2022/11/06 20:34:59;;;;;;;7.30;5.45;;;8.20;99.90;;;;;;5024339;28;20046;-83
2022/11/06 20:37:26;;;;;;;6.70;4.60;;;8.20;99.90;;;;;;5026265;28;20030;-83
2022/11/06 20:39:51;;;;;;;6.35;4.47;;;8.20;99.90;;;;;;5023590;28;20045;-85
2022/11/06 20:42:18;;;;;;;7.38;4.72;;;8.20;99.90;;;;;;5024277;28;20041;-84
2022/11/06 20:44:43;;;;;;;6.30;4.25;;;8.30;99.90;;;;;;5024161;28;20030;-85
2022/11/06 20:47:09;;;;;;;7.47;4.13;;;8.30;99.90;;;;;;5004132;28;20022;-84
2022/11/06 20:49:39;;;;;;;7.63;4.25;;;8.30;99.90;;;;;;5001996;28;20451;-83
2022/11/06 20:52:06;;;;;;;5.95;3.70;;;8.30;99.90;;;;;;5022076;28;20124;-82
2022/11/06 20:54:32;;;;;;;4.60;3.13;;;8.40;99.90;;;;;;5022940;28;20030;-83
2022/11/06 20:56:58;;;;;;;4.63;3.53;;;8.40;99.90;;;;;;5004446;28;20103;-83
2022/11/06 20:59:31;;;;;;;5.25;3.05;;;8.40;99.90;;;;;;5022525;28;20018;-83
2022/11/06 21:01:56;;;;;;;5.95;3.33;;;8.40;99.90;;;;;;5022382;28;20394;-82
2022/11/06 21:04:22;;;;;;;3.85;2.70;;;8.40;99.90;;;;;;5005473;28;20022;-84
2022/11/06 21:06:47;;;;;;;4.57;3.13;;;8.40;99.90;;;;;;5007379;28;20040;-85
2022/11/06 21:09:15;;;;;;;4.82;3.55;;;8.40;99.90;;;;;;5025562;28;20058;-83
2022/11/06 21:11:41;;;;;;;4.57;2.97;;;8.40;99.90;;;;;;5026999;28;20032;-84
2022/11/06 21:14:06;;;;;;;5.13;3.17;;;8.50;99.90;;;;;;5034822;28;20066;-84
2022/11/06 21:16:34;;;;;;;4.63;3.10;;;8.50;99.90;;;;;;5019411;28;20024;-83
2022/11/06 21:19:02;;;;;;;5.43;3.10;;;8.50;99.90;;;;;;5006905;28;20112;-84
2022/11/06 21:21:35;;;;;;;3.50;2.72;;;8.50;99.90;;;;;;5024090;28;20030;-83
2022/11/06 21:24:02;;;;;;;2.95;2.30;;;8.60;99.90;;;;;;5005474;28;20025;-85
2022/11/06 21:26:33;;;;;;;4.28;2.40;;;8.60;99.90;;;;;;5023312;28;20111;-84
2022/11/06 21:29:04;;;;;;;3.47;2.40;;;8.70;99.90;;;;;;5005147;28;20125;-80
2022/11/06 21:31:30;;;;;;;2.55;1.88;;;8.70;99.90;;;;;;5023764;28;20018;-81
2022/11/06 21:33:58;;;;;;;4.22;2.00;;;8.90;99.40;;;;;;5005406;28;20025;-84
2022/11/06 21:36:27;;;;;;;2.80;1.83;;;9.00;98.40;;;;;;5026718;28;20022;-83
2022/11/06 21:38:53;;;;;;;2.60;1.70;;;9.10;97.20;;;;;;5018470;28;20354;-83
2022/11/06 21:41:23;;;;;;;3.00;1.70;;;9.20;95.90;;;;;;5017800;28;20037;-82
2022/11/06 21:43:48;;;;;;;2.78;1.30;;;9.20;94.90;;;;;;5016475;28;20055;-82
2022/11/06 21:46:15;;;;;;;1.65;1.38;;;9.30;94.00;;;;;;5002391;28;20404;-83
2022/11/06 21:48:41;;;;;;;1.45;1.33;;;9.40;93.00;;;;;;5005398;28;20423;-84
2022/11/06 21:51:14;;;;;;;1.73;1.15;;;9.50;92.00;;;;;;5022308;28;20039;-83
2022/11/06 21:56:25;;;;;;;1.30;1.15;;;9.70;87.90;;;;;;5022779;28;20133;-86
2022/11/06 21:58:52;;;;;;;1.33;0.88;;;9.80;85.30;;;;;;5004060;28;20116;-84
2022/11/06 22:01:18;;;;;;;1.83;1.30;;;9.90;83.90;;;;;;5003693;28;20071;-83
2022/11/06 22:03:44;;;;;;;1.52;1.00;;;10.00;80.70;;;;;;5020138;28;20026;-83
2022/11/06 22:06:12;;;;;;;1.23;1.00;;;10.20;78.60;;;;;;5021872;28;20100;-83
2022/11/06 22:08:41;;;;;;;1.48;0.88;;;10.30;77.10;;;;;;5019305;28;20030;-87
2022/11/06 22:11:21;;;;;;;9.48;2.58;;;10.50;76.60;;;;;;5037817;28;20041;-86
2022/11/06 22:13:48;;;;;;;2.35;1.05;;;10.60;75.60;;;;;;5006978;28;20037;-82
2022/11/06 22:16:16;;;;;;;3.05;0.75;;;10.60;75.00;;;;;;5004946;28;20030;-82
2022/11/06 22:18:42;;;;;;;1.25;0.80;;;10.60;74.50;;;;;;5023750;28;20386;-84
2022/11/06 22:21:23;;;;;;;1.52;0.80;;;10.60;74.20;;;;;;5024065;28;20037;-83
2022/11/06 22:23:50;;;;;;;0.80;0.70;;;10.60;73.80;;;;;;5007789;28;20017;-84
2022/11/06 22:26:23;;;;;;;0.80;0.68;;;10.70;73.40;;;;;;5008104;28;20025;-84
2022/11/06 22:28:57;;;;;;;1.33;0.90;;;10.80;72.90;;;;;;5014960;28;20026;-84
2022/11/06 22:31:24;;;;;;;0.75;0.75;;;10.90;72.40;;;;;;5019105;28;20030;-86
2022/11/06 22:33:50;;;;;;;1.10;0.82;;;10.90;72.50;;;;;;5036170;28;20041;-83
2022/11/06 22:36:18;;;;;;;0.60;0.60;;;10.90;72.80;;;;;;5018228;28;20053;-85
2022/11/06 22:38:44;;;;;;;0.73;0.63;;;10.90;73.40;;;;;;5017681;28;20379;-86
2022/11/06 22:41:12;;;;;;;0.52;0.50;;;10.80;73.80;;;;;;5034844;28;20018;-85
2022/11/06 22:43:38;;;;;;;2.75;0.80;;;10.80;74.20;;;;;;5034834;28;20026;-85
2022/11/06 22:46:10;;;;;;;0.50;0.50;;;10.80;74.80;;;;;;5015320;28;20033;-82
2022/11/06 22:48:36;;;;;;;0.50;0.50;;;10.80;75.30;;;;;;5026193;28;20026;-84
2022/11/06 22:51:06;;;;;;;3.00;0.93;;;10.80;75.40;;;;;;5024353;28;20547;-83
2022/11/06 22:53:33;;;;;;;2.10;0.70;;;10.70;75.70;;;;;;5007723;28;20022;-81
2022/11/06 22:55:59;;;;;;;0.50;0.43;;;10.70;75.90;;;;;;5027758;28;20453;-80
2022/11/06 22:58:27;;;;;;;1.92;0.73;;;10.70;76.00;;;;;;5013759;28;20041;-83
2022/11/06 23:00:54;;;;;;;0.70;0.50;;;10.80;76.10;;;;;;5022693;28;20026;-83
2022/11/06 23:03:24;;;;;;;0.60;0.60;;;10.70;76.70;;;;;;4998897;28;20133;-83
2022/11/06 23:05:49;;;;;;;3.10;0.75;;;10.70;77.70;;;;;;4998495;28;20022;-82
2022/11/06 23:08:15;;;;;;;0.70;0.63;;;10.70;78.40;;;;;;5016046;28;20506;-82
2022/11/06 23:10:42;;;;;;;0.73;0.60;;;10.70;78.80;;;;;;4998884;28;20030;-82
2022/11/06 23:13:08;;;;;;;1.10;0.80;;;10.70;79.20;;;;;;5016636;28;20041;-82
2022/11/06 23:15:35;;;;;;;2.35;1.00;;;10.60;79.60;;;;;;4998294;28;20030;-82
2022/11/06 23:18:01;;;;;;;0.90;0.60;;;10.60;80.10;;;;;;5018672;28;20109;-83
2022/11/06 23:20:31;;;;;;;0.75;0.73;;;10.60;80.40;;;;;;5001305;28;20065;-84
2022/11/06 23:22:57;;;;;;;1.75;0.70;;;10.50;80.70;;;;;;5019569;28;20022;-82
2022/11/06 23:25:22;;;;;;;1.40;1.00;;;10.50;81.00;;;;;;5021594;28;20052;-84
2022/11/06 23:27:48;;;;;;;0.80;0.75;;;10.50;81.10;;;;;;5022378;28;20026;-85
2022/11/06 23:30:14;;;;;;;2.72;1.25;;;10.50;81.20;;;;;;5022068;28;20077;-84
2022/11/06 23:32:40;;;;;;;1.80;0.88;;;10.50;81.00;;;;;;5004338;28;20093;-83
2022/11/06 23:35:08;;;;;;;2.75;0.70;;;10.50;81.00;;;;;;5004047;28;20033;-82
2022/11/06 23:37:34;;;;;;;1.02;0.80;;;10.50;80.70;;;;;;5021761;28;20026;-84
2022/11/06 23:40:00;;;;;;;0.65;0.65;;;10.50;80.50;;;;;;5004038;28;20021;-83
2022/11/06 23:42:26;;;;;;;0.55;0.52;;;10.50;80.20;;;;;;5023819;28;20030;-83
2022/11/06 23:47:36;;;;;;;0.52;0.52;;;10.60;79.50;;;;;;5035313;28;20032;-83
2022/11/06 23:50:03;;;;;;;0.63;0.63;;;10.60;79.50;;;;;;5025534;28;20025;-82
2022/11/06 23:52:28;;;;;;;0.57;0.57;;;10.50;79.40;;;;;;5025940;28;20049;-83
2022/11/06 23:54:54;;;;;;;0.70;0.70;;;10.50;79.20;;;;;;5034724;28;20030;-86
2022/11/06 23:57:20;;;;;;;0.60;0.60;;;10.50;79.10;;;;;;5035272;28;20072;-83
2022/11/06 23:59:46;;;;;;;0.82;0.40;;;10.40;79.00;;;;;;5026208;28;20029;-82
